sensor_id;sensor_type;location;lat;lon;timestamp;pressure;altitude;pressure_sealevel;temperature;humidity
56944;BME280;42848;42.524;12.052;2023-03-03T00:02:07;96418.88;;;7.26;100.00
56944;BME280;42848;42.524;12.052;2023-03-03T00:04:33;96419.50;;;7.23;100.00
56944;BME280;42848;42.524;12.052;2023-03-03T00:06:59;96421.34;;;7.13;100.00
56944;BME280;42848;42.524;12.052;2023-03-03T00:09:24;96417.81;;;7.13;100.00
56944;BME280;42848;42.524;12.052;2023-03-03T00:11:55;96412.38;;;7.04;100.00
56944;BME280;42848;42.524;12.052;2023-03-03T00:14:28;96412.84;;;7.06;100.00
56944;BME280;42848;42.524;12.052;2023-03-03T00:16:55;96418.13;;;7.11;100.00
56944;BME280;42848;42.524;12.052;2023-03-03T00:19:21;96402.84;;;7.29;100.00
56944;BME280;42848;42.524;12.052;2023-03-03T00:21:49;96414.13;;;7.31;100.00
56944;BME280;42848;42.524;12.052;2023-03-03T00:24:23;96408.31;;;7.16;100.00
56944;BME280;42848;42.524;12.052;2023-03-03T00:26:52;96403.50;;;7.12;100.00
56944;BME280;42848;42.524;12.052;2023-03-03T00:29:29;96394.28;;;7.05;100.00
56944;BME280;42848;42.524;12.052;2023-03-03T00:32:34;96405.25;;;7.08;100.00
56944;BME280;42848;42.524;12.052;2023-03-03T00:35:24;96400.88;;;7.21;100.00
56944;BME280;42848;42.524;12.052;2023-03-03T00:37:56;96397.03;;;7.13;100.00
56944;BME280;42848;42.524;12.052;2023-03-03T00:40:24;96405.06;;;7.27;100.00
56944;BME280;42848;42.524;12.052;2023-03-03T00:42:54;96394.91;;;7.24;100.00
56944;BME280;42848;42.524;12.052;2023-03-03T00:45:33;96395.56;;;7.52;100.00
56944;BME280;42848;42.524;12.052;2023-03-03T00:48:28;96393.81;;;7.11;100.00
56944;BME280;42848;42.524;12.052;2023-03-03T00:50:57;96384.38;;;7.00;100.00
56944;BME280;42848;42.524;12.052;2023-03-03T00:53:25;96382.53;;;7.09;100.00
56944;BME280;42848;42.524;12.052;2023-03-03T00:55:52;96389.28;;;6.98;100.00
56944;BME280;42848;42.524;12.052;2023-03-03T00:58:19;96379.34;;;7.07;100.00
56944;BME280;42848;42.524;12.052;2023-03-03T01:00:48;96382.16;;;7.02;100.00
56944;BME280;42848;42.524;12.052;2023-03-03T01:03:19;96376.34;;;7.31;100.00
56944;BME280;42848;42.524;12.052;2023-03-03T01:05:46;96383.41;;;6.96;100.00
56944;BME280;42848;42.524;12.052;2023-03-03T01:08:13;96370.56;;;7.02;100.00
56944;BME280;42848;42.524;12.052;2023-03-03T01:10:43;96375.00;;;6.98;100.00
56944;BME280;42848;42.524;12.052;2023-03-03T01:13:10;96373.81;;;6.90;100.00
56944;BME280;42848;42.524;12.052;2023-03-03T01:15:38;96376.41;;;6.95;100.00
56944;BME280;42848;42.524;12.052;2023-03-03T01:18:05;96371.00;;;6.95;100.00
56944;BME280;42848;42.524;12.052;2023-03-03T01:20:31;96368.66;;;7.02;100.00
56944;BME280;42848;42.524;12.052;2023-03-03T01:22:57;96378.59;;;6.93;100.00
56944;BME280;42848;42.524;12.052;2023-03-03T01:25:22;96372.22;;;6.89;100.00
56944;BME280;42848;42.524;12.052;2023-03-03T01:27:48;96381.53;;;6.83;100.00
56944;BME280;42848;42.524;12.052;2023-03-03T01:30:14;96376.50;;;6.90;100.00
56944;BME280;42848;42.524;12.052;2023-03-03T01:32:40;96375.78;;;6.98;100.00
56944;BME280;42848;42.524;12.052;2023-03-03T01:35:05;96373.63;;;6.87;100.00
56944;BME280;42848;42.524;12.052;2023-03-03T01:37:33;96368.31;;;6.95;100.00
56944;BME280;42848;42.524;12.052;2023-03-03T01:40:01;96363.53;;;7.15;100.00
56944;BME280;42848;42.524;12.052;2023-03-03T01:42:27;96363.41;;;6.97;100.00
56944;BME280;42848;42.524;12.052;2023-03-03T01:45:14;96358.72;;;6.89;100.00
56944;BME280;42848;42.524;12.052;2023-03-03T01:47:49;96350.56;;;6.80;100.00
56944;BME280;42848;42.524;12.052;2023-03-03T01:50:28;96357.47;;;6.73;100.00
56944;BME280;42848;42.524;12.052;2023-03-03T01:52:58;96355.47;;;6.78;100.00
56944;BME280;42848;42.524;12.052;2023-03-03T01:55:29;96352.06;;;6.73;100.00
56944;BME280;42848;42.524;12.052;2023-03-03T01:58:08;96348.50;;;6.64;100.00
56944;BME280;42848;42.524;12.052;2023-03-03T02:00:38;96350.88;;;6.65;100.00
56944;BME280;42848;42.524;12.052;2023-03-03T02:03:05;96346.28;;;6.66;100.00
56944;BME280;42848;42.524;12.052;2023-03-03T02:05:32;96352.06;;;6.73;100.00
56944;BME280;42848;42.524;12.052;2023-03-03T02:07:59;96345.94;;;6.59;100.00
56944;BME280;42848;42.524;12.052;2023-03-03T02:10:25;96336.59;;;6.65;100.00
56944;BME280;42848;42.524;12.052;2023-03-03T02:12:57;96341.63;;;6.57;100.00
56944;BME280;42848;42.524;12.052;2023-03-03T02:15:27;96338.50;;;6.78;100.00
56944;BME280;42848;42.524;12.052;2023-03-03T02:17:56;96334.91;;;6.69;100.00
56944;BME280;42848;42.524;12.052;2023-03-03T02:25:51;96330.56;;;6.59;100.00
56944;BME280;42848;42.524;12.052;2023-03-03T02:28:19;96323.13;;;6.65;100.00
56944;BME280;42848;42.524;12.052;2023-03-03T02:30:46;96322.72;;;6.71;100.00
56944;BME280;42848;42.524;12.052;2023-03-03T02:33:11;96313.34;;;6.69;100.00
56944;BME280;42848;42.524;12.052;2023-03-03T02:35:38;96310.91;;;6.81;100.00
56944;BME280;42848;42.524;12.052;2023-03-03T02:43:38;96299.34;;;6.67;100.00
56944;BME280;42848;42.524;12.052;2023-03-03T02:46:06;96309.59;;;6.78;100.00
56944;BME280;42848;42.524;12.052;2023-03-03T02:48:32;96302.06;;;6.89;100.00
56944;BME280;42848;42.524;12.052;2023-03-03T02:50:57;96301.88;;;6.85;100.00
56944;BME280;42848;42.524;12.052;2023-03-03T02:53:23;96296.66;;;7.11;100.00
56944;BME280;42848;42.524;12.052;2023-03-03T02:55:49;96300.81;;;6.73;100.00
56944;BME280;42848;42.524;12.052;2023-03-03T02:58:14;96301.59;;;6.87;100.00
56944;BME280;42848;42.524;12.052;2023-03-03T03:00:40;96296.72;;;6.75;100.00
56944;BME280;42848;42.524;12.052;2023-03-03T03:03:05;96298.38;;;6.63;100.00
56944;BME280;42848;42.524;12.052;2023-03-03T03:05:31;96297.47;;;6.90;100.00
56944;BME280;42848;42.524;12.052;2023-03-03T03:07:57;96301.94;;;6.72;100.00
56944;BME280;42848;42.524;12.052;2023-03-03T03:10:22;96297.25;;;6.64;100.00
56944;BME280;42848;42.524;12.052;2023-03-03T03:12:48;96301.44;;;6.92;100.00
56944;BME280;42848;42.524;12.052;2023-03-03T03:15:13;96299.84;;;6.91;100.00
56944;BME280;42848;42.524;12.052;2023-03-03T03:17:40;96299.06;;;6.68;100.00
56944;BME280;42848;42.524;12.052;2023-03-03T03:20:06;96299.56;;;6.56;100.00
56944;BME280;42848;42.524;12.052;2023-03-03T03:22:33;96303.34;;;6.69;100.00
56944;BME280;42848;42.524;12.052;2023-03-03T03:24:59;96295.47;;;6.95;100.00
56944;BME280;42848;42.524;12.052;2023-03-03T03:27:24;96297.41;;;6.81;100.00
56944;BME280;42848;42.524;12.052;2023-03-03T03:29:50;96298.88;;;6.87;100.00
56944;BME280;42848;42.524;12.052;2023-03-03T03:32:15;96306.22;;;6.73;100.00
56944;BME280;42848;42.524;12.052;2023-03-03T03:34:42;96301.94;;;6.72;100.00
56944;BME280;42848;42.524;12.052;2023-03-03T03:37:07;96297.72;;;7.02;100.00
56944;BME280;42848;42.524;12.052;2023-03-03T03:39:34;96298.63;;;6.97;100.00
56944;BME280;42848;42.524;12.052;2023-03-03T03:42:00;96296.19;;;6.87;100.00
56944;BME280;42848;42.524;12.052;2023-03-03T03:44:26;96294.31;;;6.74;100.00
56944;BME280;42848;42.524;12.052;2023-03-03T03:46:52;96304.31;;;6.73;100.00
56944;BME280;42848;42.524;12.052;2023-03-03T03:49:17;96298.38;;;6.85;100.00
56944;BME280;42848;42.524;12.052;2023-03-03T03:51:43;96300.72;;;6.78;100.00
56944;BME280;42848;42.524;12.052;2023-03-03T03:54:08;96296.28;;;6.60;100.00
56944;BME280;42848;42.524;12.052;2023-03-03T03:56:34;96305.06;;;6.88;100.00
56944;BME280;42848;42.524;12.052;2023-03-03T03:59:00;96304.88;;;6.84;100.00
56944;BME280;42848;42.524;12.052;2023-03-03T04:01:25;96304.44;;;6.68;100.00
56944;BME280;42848;42.524;12.052;2023-03-03T04:03:51;96308.06;;;6.64;100.00
56944;BME280;42848;42.524;12.052;2023-03-03T04:06:17;96310.50;;;6.51;100.00
56944;BME280;42848;42.524;12.052;2023-03-03T04:08:43;96308.34;;;6.62;100.00
56944;BME280;42848;42.524;12.052;2023-03-03T04:11:09;96313.91;;;6.79;100.00
56944;BME280;42848;42.524;12.052;2023-03-03T04:13:34;96317.50;;;6.75;100.00
56944;BME280;42848;42.524;12.052;2023-03-03T04:16:01;96310.97;;;6.53;100.00
56944;BME280;42848;42.524;12.052;2023-03-03T04:18:26;96308.47;;;6.57;100.00
56944;BME280;42848;42.524;12.052;2023-03-03T04:20:52;96308.13;;;6.36;100.00
56944;BME280;42848;42.524;12.052;2023-03-03T04:23:19;96309.53;;;6.34;100.00
56944;BME280;42848;42.524;12.052;2023-03-03T04:25:46;96314.84;;;6.25;100.00
56944;BME280;42848;42.524;12.052;2023-03-03T04:28:13;96313.47;;;6.14;100.00
56944;BME280;42848;42.524;12.052;2023-03-03T04:30:39;96302.72;;;6.36;100.00
56944;BME280;42848;42.524;12.052;2023-03-03T04:33:05;96307.84;;;6.24;100.00
56944;BME280;42848;42.524;12.052;2023-03-03T04:35:31;96312.63;;;6.41;100.00
56944;BME280;42848;42.524;12.052;2023-03-03T04:37:56;96310.94;;;6.31;100.00
56944;BME280;42848;42.524;12.052;2023-03-03T04:40:22;96315.97;;;6.46;100.00
56944;BME280;42848;42.524;12.052;2023-03-03T04:42:48;96314.28;;;6.50;100.00
56944;BME280;42848;42.524;12.052;2023-03-03T04:45:14;96314.63;;;6.35;100.00
56944;BME280;42848;42.524;12.052;2023-03-03T04:47:40;96314.69;;;6.44;100.00
56944;BME280;42848;42.524;12.052;2023-03-03T04:50:07;96315.41;;;6.49;100.00
56944;BME280;42848;42.524;12.052;2023-03-03T04:52:34;96310.25;;;6.25;100.00
56944;BME280;42848;42.524;12.052;2023-03-03T04:54:59;96318.22;;;6.17;100.00
56944;BME280;42848;42.524;12.052;2023-03-03T04:57:25;96317.44;;;6.16;100.00
56944;BME280;42848;42.524;12.052;2023-03-03T04:59:51;96325.22;;;6.18;100.00
56944;BME280;42848;42.524;12.052;2023-03-03T05:02:16;96317.56;;;5.97;100.00
56944;BME280;42848;42.524;12.052;2023-03-03T05:04:42;96320.84;;;5.94;100.00
56944;BME280;42848;42.524;12.052;2023-03-03T05:07:08;96328.41;;;5.92;100.00
56944;BME280;42848;42.524;12.052;2023-03-03T05:09:34;96322.63;;;5.85;100.00
56944;BME280;42848;42.524;12.052;2023-03-03T05:12:00;96317.06;;;5.95;100.00
56944;BME280;42848;42.524;12.052;2023-03-03T05:14:26;96321.00;;;5.84;100.00
56944;BME280;42848;42.524;12.052;2023-03-03T05:16:53;96312.34;;;5.87;100.00
56944;BME280;42848;42.524;12.052;2023-03-03T05:19:18;96313.06;;;5.93;100.00
56944;BME280;42848;42.524;12.052;2023-03-03T05:21:44;96315.03;;;5.87;100.00
56944;BME280;42848;42.524;12.052;2023-03-03T05:24:11;96318.97;;;5.95;100.00
56944;BME280;42848;42.524;12.052;2023-03-03T05:26:38;96325.81;;;5.87;100.00
56944;BME280;42848;42.524;12.052;2023-03-03T05:29:04;96322.63;;;5.85;100.00
56944;BME280;42848;42.524;12.052;2023-03-03T05:31:30;96319.31;;;5.75;100.00
56944;BME280;42848;42.524;12.052;2023-03-03T05:33:55;96326.38;;;5.70;100.00
56944;BME280;42848;42.524;12.052;2023-03-03T05:36:21;96325.97;;;5.63;100.00
56944;BME280;42848;42.524;12.052;2023-03-03T05:38:46;96331.47;;;5.58;100.00
56944;BME280;42848;42.524;12.052;2023-03-03T05:41:12;96324.75;;;5.56;100.00
56944;BME280;42848;42.524;12.052;2023-03-03T05:43:38;96326.16;;;5.53;100.00
56944;BME280;42848;42.524;12.052;2023-03-03T05:46:03;96323.41;;;5.58;100.00
56944;BME280;42848;42.524;12.052;2023-03-03T05:48:29;96326.59;;;5.60;100.00
56944;BME280;42848;42.524;12.052;2023-03-03T05:50:58;96330.06;;;5.61;100.00
56944;BME280;42848;42.524;12.052;2023-03-03T05:53:24;96329.16;;;5.65;100.00
56944;BME280;42848;42.524;12.052;2023-03-03T05:55:50;96322.97;;;5.65;100.00
56944;BME280;42848;42.524;12.052;2023-03-03T05:58:15;96331.75;;;5.57;100.00
56944;BME280;42848;42.524;12.052;2023-03-03T06:00:41;96325.47;;;5.75;100.00
56944;BME280;42848;42.524;12.052;2023-03-03T06:03:07;96330.31;;;5.92;100.00
56944;BME280;42848;42.524;12.052;2023-03-03T06:05:32;96335.56;;;5.69;100.00
56944;BME280;42848;42.524;12.052;2023-03-03T06:07:58;96337.88;;;5.76;100.00
56944;BME280;42848;42.524;12.052;2023-03-03T06:10:24;96338.94;;;5.75;100.00
56944;BME280;42848;42.524;12.052;2023-03-03T06:12:50;96331.97;;;5.74;100.00
56944;BME280;42848;42.524;12.052;2023-03-03T06:15:16;96332.50;;;5.76;100.00
56944;BME280;42848;42.524;12.052;2023-03-03T06:17:43;96338.06;;;5.80;100.00
56944;BME280;42848;42.524;12.052;2023-03-03T06:20:09;96344.16;;;5.85;100.00
56944;BME280;42848;42.524;12.052;2023-03-03T06:22:34;96348.53;;;5.81;100.00
56944;BME280;42848;42.524;12.052;2023-03-03T06:25:00;96345.53;;;5.83;100.00
56944;BME280;42848;42.524;12.052;2023-03-03T06:27:26;96350.94;;;5.83;100.00
56944;BME280;42848;42.524;12.052;2023-03-03T06:29:51;96354.84;;;5.90;100.00
56944;BME280;42848;42.524;12.052;2023-03-03T06:32:17;96341.47;;;5.85;100.00
56944;BME280;42848;42.524;12.052;2023-03-03T06:34:43;96352.25;;;5.85;100.00
56944;BME280;42848;42.524;12.052;2023-03-03T06:37:09;96362.75;;;6.01;100.00
56944;BME280;42848;42.524;12.052;2023-03-03T06:39:35;96361.88;;;6.05;100.00
56944;BME280;42848;42.524;12.052;2023-03-03T06:42:00;96364.75;;;5.95;100.00
56944;BME280;42848;42.524;12.052;2023-03-03T06:44:26;96361.94;;;6.00;100.00
56944;BME280;42848;42.524;12.052;2023-03-03T06:46:51;96361.34;;;6.03;100.00
56944;BME280;42848;42.524;12.052;2023-03-03T06:49:17;96361.66;;;6.02;100.00
56944;BME280;42848;42.524;12.052;2023-03-03T06:51:43;96364.53;;;6.19;100.00
56944;BME280;42848;42.524;12.052;2023-03-03T06:54:15;96362.06;;;6.22;100.00
56944;BME280;42848;42.524;12.052;2023-03-03T06:56:42;96360.16;;;6.23;100.00
56944;BME280;42848;42.524;12.052;2023-03-03T06:59:15;96365.13;;;6.30;100.00
56944;BME280;42848;42.524;12.052;2023-03-03T07:01:42;96359.25;;;6.41;100.00
56944;BME280;42848;42.524;12.052;2023-03-03T07:04:29;96362.44;;;6.43;100.00
56944;BME280;42848;42.524;12.052;2023-03-03T07:06:57;96361.72;;;6.51;100.00
56944;BME280;42848;42.524;12.052;2023-03-03T07:09:26;96359.69;;;6.57;100.00
56944;BME280;42848;42.524;12.052;2023-03-03T07:11:56;96358.31;;;6.60;100.00
56944;BME280;42848;42.524;12.052;2023-03-03T07:14:25;96363.47;;;6.70;100.00
56944;BME280;42848;42.524;12.052;2023-03-03T07:16:55;96363.47;;;6.70;100.00
56944;BME280;42848;42.524;12.052;2023-03-03T07:19:40;96356.84;;;6.76;100.00
56944;BME280;42848;42.524;12.052;2023-03-03T07:24:40;96366.66;;;6.72;100.00
56944;BME280;42848;42.524;12.052;2023-03-03T07:29:42;96364.53;;;6.82;100.00
56944;BME280;42848;42.524;12.052;2023-03-03T07:32:21;96368.00;;;6.97;100.00
56944;BME280;42848;42.524;12.052;2023-03-03T07:34:51;96365.00;;;6.98;100.00
56944;BME280;42848;42.524;12.052;2023-03-03T07:39:49;96368.34;;;7.04;100.00
56944;BME280;42848;42.524;12.052;2023-03-03T07:42:21;96376.28;;;7.00;100.00
56944;BME280;42848;42.524;12.052;2023-03-03T07:44:58;96375.59;;;6.95;100.00
56944;BME280;42848;42.524;12.052;2023-03-03T07:47:28;96383.19;;;6.93;100.00
56944;BME280;42848;42.524;12.052;2023-03-03T07:49:56;96376.91;;;6.97;100.00
56944;BME280;42848;42.524;12.052;2023-03-03T07:54:58;96380.31;;;7.11;100.00
56944;BME280;42848;42.524;12.052;2023-03-03T07:57:36;96386.59;;;7.43;100.00
56944;BME280;42848;42.524;12.052;2023-03-03T08:03:03;96385.19;;;7.46;100.00
56944;BME280;42848;42.524;12.052;2023-03-03T08:08:29;96386.53;;;7.34;100.00
56944;BME280;42848;42.524;12.052;2023-03-03T08:11:01;96386.47;;;7.48;100.00
56944;BME280;42848;42.524;12.052;2023-03-03T08:18:37;96384.75;;;7.52;100.00
56944;BME280;42848;42.524;12.052;2023-03-03T08:21:08;96386.72;;;7.60;100.00
56944;BME280;42848;42.524;12.052;2023-03-03T08:23:35;96384.88;;;7.69;100.00
56944;BME280;42848;42.524;12.052;2023-03-03T08:26:01;96393.72;;;7.61;100.00
56944;BME280;42848;42.524;12.052;2023-03-03T08:28:26;96388.31;;;7.61;100.00
56944;BME280;42848;42.524;12.052;2023-03-03T08:30:52;96398.97;;;7.66;100.00
56944;BME280;42848;42.524;12.052;2023-03-03T08:33:18;96386.47;;;7.70;100.00
56944;BME280;42848;42.524;12.052;2023-03-03T08:35:44;96390.28;;;7.69;100.00
56944;BME280;42848;42.524;12.052;2023-03-03T08:38:11;96385.41;;;7.80;100.00
56944;BME280;42848;42.524;12.052;2023-03-03T08:40:38;96397.38;;;7.88;100.00
56944;BME280;42848;42.524;12.052;2023-03-03T08:43:04;96386.56;;;7.88;100.00
56944;BME280;42848;42.524;12.052;2023-03-03T08:45:31;96394.03;;;7.91;100.00
56944;BME280;42848;42.524;12.052;2023-03-03T08:47:56;96389.94;;;8.02;100.00
56944;BME280;42848;42.524;12.052;2023-03-03T08:50:25;96390.09;;;7.97;100.00
56944;BME280;42848;42.524;12.052;2023-03-03T08:52:50;96405.22;;;7.98;100.00
56944;BME280;42848;42.524;12.052;2023-03-03T08:55:17;96395.06;;;8.12;100.00
56944;BME280;42848;42.524;12.052;2023-03-03T08:57:43;96403.06;;;8.17;100.00
56944;BME280;42848;42.524;12.052;2023-03-03T09:00:11;96400.16;;;8.05;100.00
56944;BME280;42848;42.524;12.052;2023-03-03T09:02:37;96409.94;;;8.23;100.00
56944;BME280;42848;42.524;12.052;2023-03-03T09:05:04;96417.53;;;8.21;100.00
56944;BME280;42848;42.524;12.052;2023-03-03T09:07:30;96405.97;;;8.30;100.00
56944;BME280;42848;42.524;12.052;2023-03-03T09:09:56;96409.25;;;8.49;100.00
56944;BME280;42848;42.524;12.052;2023-03-03T09:12:29;96406.91;;;8.25;100.00
56944;BME280;42848;42.524;12.052;2023-03-03T09:17:40;96402.41;;;8.43;100.00
56944;BME280;42848;42.524;12.052;2023-03-03T09:22:53;96408.81;;;8.64;100.00
56944;BME280;42848;42.524;12.052;2023-03-03T09:25:33;96421.16;;;8.48;100.00
56944;BME280;42848;42.524;12.052;2023-03-03T09:28:02;96411.34;;;8.52;100.00
56944;BME280;42848;42.524;12.052;2023-03-03T09:33:28;96422.25;;;9.04;100.00
56944;BME280;42848;42.524;12.052;2023-03-03T09:38:44;96412.97;;;8.70;100.00
56944;BME280;42848;42.524;12.052;2023-03-03T09:41:52;96418.34;;;8.53;100.00
56944;BME280;42848;42.524;12.052;2023-03-03T09:52:50;96416.66;;;8.83;100.00
56944;BME280;42848;42.524;12.052;2023-03-03T10:06:37;96415.91;;;9.08;100.00
56944;BME280;42848;42.524;12.052;2023-03-03T10:14:31;96421.31;;;9.34;100.00
56944;BME280;42848;42.524;12.052;2023-03-03T10:19:38;96429.28;;;9.22;100.00
56944;BME280;42848;42.524;12.052;2023-03-03T10:35:34;96423.06;;;9.22;100.00
56944;BME280;42848;42.524;12.052;2023-03-03T10:38:43;96424.03;;;9.34;100.00
56944;BME280;42848;42.524;12.052;2023-03-03T10:55:15;96418.59;;;9.52;100.00
56944;BME280;42848;42.524;12.052;2023-03-03T10:57:58;96415.06;;;9.60;100.00
56944;BME280;42848;42.524;12.052;2023-03-03T11:00:34;96414.25;;;9.68;100.00
56944;BME280;42848;42.524;12.052;2023-03-03T11:05:59;96414.78;;;9.61;100.00
56944;BME280;42848;42.524;12.052;2023-03-03T11:16:49;96398.13;;;9.89;100.00
56944;BME280;42848;42.524;12.052;2023-03-03T11:19:38;96398.00;;;9.77;100.00
56944;BME280;42848;42.524;12.052;2023-03-03T11:25:28;96388.56;;;9.91;100.00
56944;BME280;42848;42.524;12.052;2023-03-03T11:36:14;96380.06;;;10.02;100.00
56944;BME280;42848;42.524;12.052;2023-03-03T11:38:59;96380.06;;;10.02;100.00
56944;BME280;42848;42.524;12.052;2023-03-03T11:41:30;96366.88;;;9.83;100.00
56944;BME280;42848;42.524;12.052;2023-03-03T11:56:58;96360.84;;;10.24;100.00
56944;BME280;42848;42.524;12.052;2023-03-03T12:13:26;96341.44;;;10.51;100.00
56944;BME280;42848;42.524;12.052;2023-03-03T12:24:20;96334.69;;;10.28;100.00
56944;BME280;42848;42.524;12.052;2023-03-03T12:29:48;96324.97;;;10.18;100.00
56944;BME280;42848;42.524;12.052;2023-03-03T12:32:26;96328.28;;;10.24;100.00
56944;BME280;42848;42.524;12.052;2023-03-03T12:35:08;96328.19;;;10.12;100.00
56944;BME280;42848;42.524;12.052;2023-03-03T12:40:30;96325.09;;;9.84;100.00
56944;BME280;42848;42.524;12.052;2023-03-03T12:48:38;96322.66;;;10.00;100.00
56944;BME280;42848;42.524;12.052;2023-03-03T12:51:36;96325.34;;;10.08;100.00
56944;BME280;42848;42.524;12.052;2023-03-03T12:56:57;96312.47;;;10.35;100.00
56944;BME280;42848;42.524;12.052;2023-03-03T13:15:30;96319.72;;;10.51;100.00
56944;BME280;42848;42.524;12.052;2023-03-03T13:29:08;96318.38;;;10.58;100.00
56944;BME280;42848;42.524;12.052;2023-03-03T13:31:51;96328.38;;;10.45;100.00
56944;BME280;42848;42.524;12.052;2023-03-03T13:36:52;96313.00;;;10.49;100.00
56944;BME280;42848;42.524;12.052;2023-03-03T13:39:27;96327.03;;;10.51;100.00
56944;BME280;42848;42.524;12.052;2023-03-03T13:42:02;96327.38;;;10.49;100.00
56944;BME280;42848;42.524;12.052;2023-03-03T13:44:42;96311.75;;;10.46;100.00
56944;BME280;42848;42.524;12.052;2023-03-03T13:47:31;96322.03;;;10.32;100.00
56944;BME280;42848;42.524;12.052;2023-03-03T14:06:56;96291.56;;;11.19;100.00
56944;BME280;42848;42.524;12.052;2023-03-03T14:09:38;96291.31;;;10.91;100.00
56944;BME280;42848;42.524;12.052;2023-03-03T14:20:45;96288.88;;;11.31;100.00
56944;BME280;42848;42.524;12.052;2023-03-03T14:28:46;96293.16;;;10.78;100.00
56944;BME280;42848;42.524;12.052;2023-03-03T14:31:28;96280.66;;;10.65;100.00
56944;BME280;42848;42.524;12.052;2023-03-03T14:36:58;96288.06;;;10.97;100.00
56944;BME280;42848;42.524;12.052;2023-03-03T14:39:33;96273.28;;;10.86;100.00
56944;BME280;42848;42.524;12.052;2023-03-03T14:44:55;96266.69;;;10.75;100.00
56944;BME280;42848;42.524;12.052;2023-03-03T14:47:27;96269.22;;;10.80;100.00
56944;BME280;42848;42.524;12.052;2023-03-03T14:49:55;96271.44;;;10.57;100.00
56944;BME280;42848;42.524;12.052;2023-03-03T14:52:26;96269.06;;;10.35;100.00
56944;BME280;42848;42.524;12.052;2023-03-03T14:54:58;96282.22;;;10.15;100.00
56944;BME280;42848;42.524;12.052;2023-03-03T15:03:02;96263.88;;;9.83;100.00
56944;BME280;42848;42.524;12.052;2023-03-03T15:05:32;96276.72;;;9.94;100.00
56944;BME280;42848;42.524;12.052;2023-03-03T15:15:51;96269.06;;;10.56;100.00
56944;BME280;42848;42.524;12.052;2023-03-03T15:18:17;96263.91;;;10.63;100.00
56944;BME280;42848;42.524;12.052;2023-03-03T15:20:50;96267.81;;;10.74;100.00
56944;BME280;42848;42.524;12.052;2023-03-03T15:23:29;96257.81;;;10.66;100.00
56944;BME280;42848;42.524;12.052;2023-03-03T15:34:41;96266.16;;;10.61;100.00
56944;BME280;42848;42.524;12.052;2023-03-03T15:37:23;96278.72;;;10.44;100.00
56944;BME280;42848;42.524;12.052;2023-03-03T15:39:57;96282.63;;;10.56;100.00
56944;BME280;42848;42.524;12.052;2023-03-03T15:48:43;96268.59;;;10.53;100.00
56944;BME280;42848;42.524;12.052;2023-03-03T16:04:03;96280.47;;;10.11;100.00
56944;BME280;42848;42.524;12.052;2023-03-03T16:15:19;96291.53;;;9.59;100.00
56944;BME280;42848;42.524;12.052;2023-03-03T16:18:06;96297.44;;;9.69;100.00
56944;BME280;42848;42.524;12.052;2023-03-03T16:26:12;96304.16;;;9.55;100.00
56944;BME280;42848;42.524;12.052;2023-03-03T16:37:28;96319.53;;;9.25;100.00
56944;BME280;42848;42.524;12.052;2023-03-03T16:42:43;96314.13;;;9.07;100.00
56944;BME280;42848;42.524;12.052;2023-03-03T16:45:33;96313.94;;;9.04;100.00
56944;BME280;42848;42.524;12.052;2023-03-03T16:48:30;96333.06;;;8.99;100.00
56944;BME280;42848;42.524;12.052;2023-03-03T16:53:51;96323.50;;;8.75;100.00
56944;BME280;42848;42.524;12.052;2023-03-03T16:56:45;96324.94;;;8.64;100.00
56944;BME280;42848;42.524;12.052;2023-03-03T17:04:51;96332.53;;;8.45;100.00
56944;BME280;42848;42.524;12.052;2023-03-03T17:07:42;96329.69;;;8.41;100.00
56944;BME280;42848;42.524;12.052;2023-03-03T17:12:57;96332.84;;;8.35;100.00
56944;BME280;42848;42.524;12.052;2023-03-03T17:18:24;96345.34;;;8.22;100.00
56944;BME280;42848;42.524;12.052;2023-03-03T17:20:59;96346.44;;;8.21;100.00
56944;BME280;42848;42.524;12.052;2023-03-03T17:34:34;96348.56;;;7.93;100.00
56944;BME280;42848;42.524;12.052;2023-03-03T17:45:35;96363.09;;;7.75;100.00
56944;BME280;42848;42.524;12.052;2023-03-03T17:56:15;96378.78;;;7.64;100.00
56944;BME280;42848;42.524;12.052;2023-03-03T18:01:48;96378.91;;;7.59;100.00
56944;BME280;42848;42.524;12.052;2023-03-03T18:05:02;96386.97;;;7.50;100.00
56944;BME280;42848;42.524;12.052;2023-03-03T18:07:58;96389.91;;;7.62;100.00
56944;BME280;42848;42.524;12.052;2023-03-03T18:18:45;96408.03;;;7.62;100.00
56944;BME280;42848;42.524;12.052;2023-03-03T18:24:24;96402.66;;;7.48;100.00
56944;BME280;42848;42.524;12.052;2023-03-03T18:26:52;96403.19;;;7.50;100.00
56944;BME280;42848;42.524;12.052;2023-03-03T18:29:24;96404.47;;;7.53;100.00
56944;BME280;42848;42.524;12.052;2023-03-03T18:36:58;96405.03;;;7.41;100.00
56944;BME280;42848;42.524;12.052;2023-03-03T18:39:43;96411.75;;;7.30;100.00
56944;BME280;42848;42.524;12.052;2023-03-03T18:50:43;96412.47;;;7.22;100.00
56944;BME280;42848;42.524;12.052;2023-03-03T18:53:20;96420.50;;;7.13;100.00
56944;BME280;42848;42.524;12.052;2023-03-03T18:55:54;96420.50;;;7.13;100.00
56944;BME280;42848;42.524;12.052;2023-03-03T19:03:36;96416.53;;;7.10;100.00
56944;BME280;42848;42.524;12.052;2023-03-03T19:06:04;96402.94;;;7.16;100.00
56944;BME280;42848;42.524;12.052;2023-03-03T19:08:53;96409.78;;;7.22;100.00
56944;BME280;42848;42.524;12.052;2023-03-03T19:11:39;96411.13;;;7.10;100.00
56944;BME280;42848;42.524;12.052;2023-03-03T19:20:10;96422.78;;;6.97;100.00
56944;BME280;42848;42.524;12.052;2023-03-03T19:22:45;96420.25;;;7.01;100.00
56944;BME280;42848;42.524;12.052;2023-03-03T19:27:50;96435.38;;;6.88;100.00
56944;BME280;42848;42.524;12.052;2023-03-03T19:33:29;96434.47;;;6.93;100.00
56944;BME280;42848;42.524;12.052;2023-03-03T19:36:13;96421.97;;;6.97;100.00